sensor_id;sensor_type;location;lat;lon;timestamp;P1;durP1;ratioP1;P2;durP2;ratioP2
35959;SDS011;22043;50.970;7.192;2024-03-08T00:00:01;14.95;;;8.82;;
35959;SDS011;22043;50.970;7.192;2024-03-08T00:02:38;18.73;;;8.95;;
35959;SDS011;22043;50.970;7.192;2024-03-08T00:05:04;18.23;;;9.63;;
35959;SDS011;22043;50.970;7.192;2024-03-08T00:07:31;16.25;;;8.65;;
35959;SDS011;22043;50.970;7.192;2024-03-08T00:09:56;16.92;;;8.77;;
35959;SDS011;22043;50.970;7.192;2024-03-08T00:12:22;20.77;;;9.70;;
35959;SDS011;22043;50.970;7.192;2024-03-08T00:14:47;18.35;;;10.48;;
35959;SDS011;22043;50.970;7.192;2024-03-08T00:17:13;19.80;;;8.82;;
35959;SDS011;22043;50.970;7.192;2024-03-08T00:19:40;19.48;;;9.13;;
35959;SDS011;22043;50.970;7.192;2024-03-08T00:22:06;19.35;;;10.30;;
35959;SDS011;22043;50.970;7.192;2024-03-08T00:24:33;18.35;;;9.55;;
35959;SDS011;22043;50.970;7.192;2024-03-08T00:26:58;18.60;;;9.15;;
35959;SDS011;22043;50.970;7.192;2024-03-08T00:29:24;18.30;;;10.63;;
35959;SDS011;22043;50.970;7.192;2024-03-08T00:31:49;16.33;;;8.68;;
35959;SDS011;22043;50.970;7.192;2024-03-08T00:34:15;19.05;;;9.10;;
35959;SDS011;22043;50.970;7.192;2024-03-08T00:36:41;16.83;;;8.93;;
35959;SDS011;22043;50.970;7.192;2024-03-08T00:39:07;20.83;;;10.93;;
35959;SDS011;22043;50.970;7.192;2024-03-08T00:41:32;28.25;;;10.27;;
35959;SDS011;22043;50.970;7.192;2024-03-08T00:43:58;18.95;;;9.30;;
35959;SDS011;22043;50.970;7.192;2024-03-08T00:46:23;20.65;;;10.32;;
35959;SDS011;22043;50.970;7.192;2024-03-08T00:48:50;17.83;;;9.65;;
35959;SDS011;22043;50.970;7.192;2024-03-08T00:51:16;18.27;;;9.32;;
35959;SDS011;22043;50.970;7.192;2024-03-08T00:53:41;19.45;;;9.77;;
35959;SDS011;22043;50.970;7.192;2024-03-08T00:56:08;19.30;;;10.30;;
35959;SDS011;22043;50.970;7.192;2024-03-08T00:58:38;21.23;;;10.32;;
35959;SDS011;22043;50.970;7.192;2024-03-08T01:01:04;19.98;;;10.00;;
35959;SDS011;22043;50.970;7.192;2024-03-08T01:03:30;17.08;;;9.25;;
35959;SDS011;22043;50.970;7.192;2024-03-08T01:05:59;16.85;;;9.32;;
35959;SDS011;22043;50.970;7.192;2024-03-08T01:08:26;20.40;;;9.15;;
35959;SDS011;22043;50.970;7.192;2024-03-08T01:10:52;21.10;;;11.45;;
35959;SDS011;22043;50.970;7.192;2024-03-08T01:13:18;19.67;;;10.10;;
35959;SDS011;22043;50.970;7.192;2024-03-08T01:15:45;20.55;;;9.75;;
35959;SDS011;22043;50.970;7.192;2024-03-08T01:18:11;20.48;;;10.27;;
35959;SDS011;22043;50.970;7.192;2024-03-08T01:20:36;18.73;;;9.18;;
35959;SDS011;22043;50.970;7.192;2024-03-08T01:23:02;19.45;;;10.13;;
35959;SDS011;22043;50.970;7.192;2024-03-08T01:25:30;19.55;;;10.35;;
35959;SDS011;22043;50.970;7.192;2024-03-08T01:27:57;20.92;;;10.07;;
35959;SDS011;22043;50.970;7.192;2024-03-08T01:30:23;21.48;;;9.82;;
35959;SDS011;22043;50.970;7.192;2024-03-08T01:32:48;18.92;;;9.73;;
35959;SDS011;22043;50.970;7.192;2024-03-08T01:35:14;25.08;;;10.63;;
35959;SDS011;22043;50.970;7.192;2024-03-08T01:37:39;18.67;;;9.38;;
35959;SDS011;22043;50.970;7.192;2024-03-08T01:40:05;22.65;;;10.88;;
35959;SDS011;22043;50.970;7.192;2024-03-08T01:42:33;24.58;;;10.85;;
35959;SDS011;22043;50.970;7.192;2024-03-08T01:45:03;23.33;;;10.48;;
35959;SDS011;22043;50.970;7.192;2024-03-08T01:47:32;19.90;;;9.77;;
35959;SDS011;22043;50.970;7.192;2024-03-08T01:50:02;17.02;;;9.13;;
35959;SDS011;22043;50.970;7.192;2024-03-08T01:52:31;17.80;;;9.00;;
35959;SDS011;22043;50.970;7.192;2024-03-08T01:55:01;21.38;;;9.82;;
35959;SDS011;22043;50.970;7.192;2024-03-08T01:57:29;20.83;;;10.57;;
35959;SDS011;22043;50.970;7.192;2024-03-08T01:59:56;21.38;;;10.27;;
35959;SDS011;22043;50.970;7.192;2024-03-08T02:02:22;15.77;;;8.93;;
35959;SDS011;22043;50.970;7.192;2024-03-08T02:04:48;21.42;;;10.00;;
35959;SDS011;22043;50.970;7.192;2024-03-08T02:07:14;19.48;;;9.75;;
35959;SDS011;22043;50.970;7.192;2024-03-08T02:09:39;19.08;;;10.13;;
35959;SDS011;22043;50.970;7.192;2024-03-08T02:12:05;23.85;;;9.82;;
35959;SDS011;22043;50.970;7.192;2024-03-08T02:14:35;19.38;;;9.70;;
35959;SDS011;22043;50.970;7.192;2024-03-08T02:17:01;20.25;;;10.38;;
35959;SDS011;22043;50.970;7.192;2024-03-08T02:19:27;18.83;;;9.70;;
35959;SDS011;22043;50.970;7.192;2024-03-08T02:21:52;20.83;;;10.23;;
35959;SDS011;22043;50.970;7.192;2024-03-08T02:24:18;19.70;;;10.00;;
35959;SDS011;22043;50.970;7.192;2024-03-08T02:26:44;25.73;;;10.60;;
35959;SDS011;22043;50.970;7.192;2024-03-08T02:29:09;20.30;;;9.52;;
35959;SDS011;22043;50.970;7.192;2024-03-08T02:31:35;21.48;;;10.40;;
35959;SDS011;22043;50.970;7.192;2024-03-08T02:34:00;20.30;;;9.63;;
35959;SDS011;22043;50.970;7.192;2024-03-08T02:36:28;19.73;;;9.77;;
35959;SDS011;22043;50.970;7.192;2024-03-08T02:38:53;20.17;;;9.95;;
35959;SDS011;22043;50.970;7.192;2024-03-08T02:41:20;18.33;;;10.20;;
35959;SDS011;22043;50.970;7.192;2024-03-08T02:43:46;18.55;;;9.73;;
35959;SDS011;22043;50.970;7.192;2024-03-08T02:46:11;20.38;;;10.77;;
35959;SDS011;22043;50.970;7.192;2024-03-08T02:48:37;20.80;;;10.73;;
35959;SDS011;22043;50.970;7.192;2024-03-08T02:51:02;23.35;;;10.27;;
35959;SDS011;22043;50.970;7.192;2024-03-08T02:53:28;24.65;;;10.30;;
35959;SDS011;22043;50.970;7.192;2024-03-08T02:55:54;21.17;;;10.98;;
35959;SDS011;22043;50.970;7.192;2024-03-08T02:58:20;20.95;;;9.70;;
35959;SDS011;22043;50.970;7.192;2024-03-08T03:00:45;21.70;;;10.25;;
35959;SDS011;22043;50.970;7.192;2024-03-08T03:03:11;20.65;;;9.60;;
35959;SDS011;22043;50.970;7.192;2024-03-08T03:05:36;18.42;;;9.43;;
35959;SDS011;22043;50.970;7.192;2024-03-08T03:08:02;19.85;;;9.50;;
35959;SDS011;22043;50.970;7.192;2024-03-08T03:10:29;22.20;;;10.53;;
35959;SDS011;22043;50.970;7.192;2024-03-08T03:12:54;20.92;;;9.65;;
35959;SDS011;22043;50.970;7.192;2024-03-08T03:15:20;25.77;;;11.48;;
35959;SDS011;22043;50.970;7.192;2024-03-08T03:17:49;18.67;;;9.75;;
35959;SDS011;22043;50.970;7.192;2024-03-08T03:20:16;21.27;;;10.52;;
35959;SDS011;22043;50.970;7.192;2024-03-08T03:22:48;20.85;;;10.07;;
35959;SDS011;22043;50.970;7.192;2024-03-08T03:25:17;22.67;;;11.38;;
35959;SDS011;22043;50.970;7.192;2024-03-08T03:27:50;18.80;;;8.88;;
35959;SDS011;22043;50.970;7.192;2024-03-08T03:30:16;24.67;;;10.50;;
35959;SDS011;22043;50.970;7.192;2024-03-08T03:32:50;23.40;;;10.73;;
35959;SDS011;22043;50.970;7.192;2024-03-08T03:35:19;20.10;;;9.98;;
35959;SDS011;22043;50.970;7.192;2024-03-08T03:37:48;20.80;;;9.93;;
35959;SDS011;22043;50.970;7.192;2024-03-08T03:40:27;22.13;;;9.80;;
35959;SDS011;22043;50.970;7.192;2024-03-08T03:42:54;20.13;;;10.30;;
35959;SDS011;22043;50.970;7.192;2024-03-08T03:45:19;17.33;;;9.68;;
35959;SDS011;22043;50.970;7.192;2024-03-08T03:47:46;20.65;;;10.40;;
35959;SDS011;22043;50.970;7.192;2024-03-08T03:50:12;21.38;;;10.43;;
35959;SDS011;22043;50.970;7.192;2024-03-08T03:52:38;21.85;;;10.60;;
35959;SDS011;22043;50.970;7.192;2024-03-08T03:55:04;21.27;;;11.15;;
35959;SDS011;22043;50.970;7.192;2024-03-08T03:57:30;19.23;;;10.43;;
35959;SDS011;22043;50.970;7.192;2024-03-08T03:59:56;22.65;;;10.40;;
35959;SDS011;22043;50.970;7.192;2024-03-08T04:02:23;24.40;;;11.43;;
35959;SDS011;22043;50.970;7.192;2024-03-08T04:04:51;17.85;;;10.05;;
35959;SDS011;22043;50.970;7.192;2024-03-08T04:07:17;21.35;;;10.35;;
35959;SDS011;22043;50.970;7.192;2024-03-08T04:09:43;22.40;;;10.10;;
35959;SDS011;22043;50.970;7.192;2024-03-08T04:12:08;20.30;;;10.02;;
35959;SDS011;22043;50.970;7.192;2024-03-08T04:14:35;20.48;;;10.65;;
35959;SDS011;22043;50.970;7.192;2024-03-08T04:17:00;22.05;;;9.90;;
35959;SDS011;22043;50.970;7.192;2024-03-08T04:19:27;18.42;;;9.27;;
35959;SDS011;22043;50.970;7.192;2024-03-08T04:21:54;20.33;;;9.73;;
35959;SDS011;22043;50.970;7.192;2024-03-08T04:24:21;21.98;;;10.45;;
35959;SDS011;22043;50.970;7.192;2024-03-08T04:26:46;23.10;;;10.63;;
35959;SDS011;22043;50.970;7.192;2024-03-08T04:29:14;23.15;;;9.93;;
35959;SDS011;22043;50.970;7.192;2024-03-08T04:31:40;21.50;;;10.27;;
35959;SDS011;22043;50.970;7.192;2024-03-08T04:34:06;19.83;;;10.25;;
35959;SDS011;22043;50.970;7.192;2024-03-08T04:36:31;23.70;;;11.52;;
35959;SDS011;22043;50.970;7.192;2024-03-08T04:38:59;20.55;;;10.25;;
35959;SDS011;22043;50.970;7.192;2024-03-08T04:41:25;21.08;;;11.05;;
35959;SDS011;22043;50.970;7.192;2024-03-08T04:43:51;20.63;;;10.52;;
35959;SDS011;22043;50.970;7.192;2024-03-08T04:46:17;24.70;;;11.30;;
35959;SDS011;22043;50.970;7.192;2024-03-08T04:48:43;21.48;;;10.85;;
35959;SDS011;22043;50.970;7.192;2024-03-08T04:51:08;20.60;;;9.70;;
35959;SDS011;22043;50.970;7.192;2024-03-08T04:53:34;19.35;;;9.75;;
35959;SDS011;22043;50.970;7.192;2024-03-08T04:56:00;22.20;;;9.98;;
35959;SDS011;22043;50.970;7.192;2024-03-08T04:58:31;22.77;;;10.73;;
35959;SDS011;22043;50.970;7.192;2024-03-08T05:00:59;20.55;;;10.02;;
35959;SDS011;22043;50.970;7.192;2024-03-08T05:03:25;23.42;;;11.10;;
35959;SDS011;22043;50.970;7.192;2024-03-08T05:05:50;23.20;;;9.68;;
35959;SDS011;22043;50.970;7.192;2024-03-08T05:08:16;26.15;;;11.18;;
35959;SDS011;22043;50.970;7.192;2024-03-08T05:10:43;26.95;;;10.65;;
35959;SDS011;22043;50.970;7.192;2024-03-08T05:13:09;20.08;;;9.98;;
35959;SDS011;22043;50.970;7.192;2024-03-08T05:15:35;22.15;;;10.45;;
35959;SDS011;22043;50.970;7.192;2024-03-08T05:18:01;22.63;;;11.23;;
35959;SDS011;22043;50.970;7.192;2024-03-08T05:20:27;25.05;;;9.85;;
35959;SDS011;22043;50.970;7.192;2024-03-08T05:22:53;19.75;;;9.45;;
35959;SDS011;22043;50.970;7.192;2024-03-08T05:25:18;21.50;;;10.43;;
35959;SDS011;22043;50.970;7.192;2024-03-08T05:27:43;21.80;;;10.48;;
35959;SDS011;22043;50.970;7.192;2024-03-08T05:30:09;23.10;;;11.15;;
35959;SDS011;22043;50.970;7.192;2024-03-08T05:32:42;26.77;;;11.63;;
35959;SDS011;22043;50.970;7.192;2024-03-08T05:35:14;22.75;;;11.45;;
35959;SDS011;22043;50.970;7.192;2024-03-08T05:37:41;28.23;;;11.02;;
35959;SDS011;22043;50.970;7.192;2024-03-08T05:40:10;22.35;;;11.00;;
35959;SDS011;22043;50.970;7.192;2024-03-08T05:42:35;23.70;;;10.52;;
35959;SDS011;22043;50.970;7.192;2024-03-08T05:45:04;22.27;;;9.70;;
35959;SDS011;22043;50.970;7.192;2024-03-08T05:47:31;18.58;;;9.27;;
35959;SDS011;22043;50.970;7.192;2024-03-08T05:49:58;20.90;;;10.23;;
35959;SDS011;22043;50.970;7.192;2024-03-08T05:52:24;21.58;;;10.48;;
35959;SDS011;22043;50.970;7.192;2024-03-08T05:54:51;23.75;;;11.23;;
35959;SDS011;22043;50.970;7.192;2024-03-08T05:57:16;22.38;;;10.77;;
35959;SDS011;22043;50.970;7.192;2024-03-08T05:59:42;23.08;;;10.98;;
35959;SDS011;22043;50.970;7.192;2024-03-08T06:02:07;22.90;;;10.35;;
35959;SDS011;22043;50.970;7.192;2024-03-08T06:04:33;22.02;;;10.85;;
35959;SDS011;22043;50.970;7.192;2024-03-08T06:06:58;24.58;;;11.27;;
35959;SDS011;22043;50.970;7.192;2024-03-08T06:09:24;23.75;;;11.10;;
35959;SDS011;22043;50.970;7.192;2024-03-08T06:11:50;23.38;;;10.52;;
35959;SDS011;22043;50.970;7.192;2024-03-08T06:14:19;22.52;;;10.70;;
35959;SDS011;22043;50.970;7.192;2024-03-08T06:16:45;19.77;;;10.45;;
35959;SDS011;22043;50.970;7.192;2024-03-08T06:19:10;21.17;;;10.95;;
35959;SDS011;22043;50.970;7.192;2024-03-08T06:21:37;20.73;;;9.43;;
35959;SDS011;22043;50.970;7.192;2024-03-08T06:24:02;20.75;;;9.73;;
35959;SDS011;22043;50.970;7.192;2024-03-08T06:26:28;22.75;;;10.77;;
35959;SDS011;22043;50.970;7.192;2024-03-08T06:28:53;21.95;;;10.27;;
35959;SDS011;22043;50.970;7.192;2024-03-08T06:31:19;24.08;;;10.95;;
35959;SDS011;22043;50.970;7.192;2024-03-08T06:33:45;23.75;;;10.98;;
35959;SDS011;22043;50.970;7.192;2024-03-08T06:36:10;25.17;;;11.60;;
35959;SDS011;22043;50.970;7.192;2024-03-08T06:38:37;21.33;;;11.25;;
35959;SDS011;22043;50.970;7.192;2024-03-08T06:41:08;22.73;;;11.48;;
35959;SDS011;22043;50.970;7.192;2024-03-08T06:43:34;21.42;;;11.07;;
35959;SDS011;22043;50.970;7.192;2024-03-08T06:45:59;21.77;;;10.73;;
35959;SDS011;22043;50.970;7.192;2024-03-08T06:48:25;22.67;;;11.23;;
35959;SDS011;22043;50.970;7.192;2024-03-08T06:50:50;25.10;;;10.90;;
35959;SDS011;22043;50.970;7.192;2024-03-08T06:53:16;23.70;;;10.95;;
35959;SDS011;22043;50.970;7.192;2024-03-08T06:55:44;24.20;;;10.68;;
35959;SDS011;22043;50.970;7.192;2024-03-08T06:58:09;23.92;;;11.15;;
35959;SDS011;22043;50.970;7.192;2024-03-08T07:00:36;21.73;;;10.52;;
35959;SDS011;22043;50.970;7.192;2024-03-08T07:03:02;24.35;;;11.57;;
35959;SDS011;22043;50.970;7.192;2024-03-08T07:05:28;24.10;;;11.10;;
35959;SDS011;22043;50.970;7.192;2024-03-08T07:07:54;21.63;;;9.88;;
35959;SDS011;22043;50.970;7.192;2024-03-08T07:10:20;22.52;;;11.43;;
35959;SDS011;22043;50.970;7.192;2024-03-08T07:12:48;23.02;;;10.85;;
35959;SDS011;22043;50.970;7.192;2024-03-08T07:15:14;22.63;;;10.68;;
35959;SDS011;22043;50.970;7.192;2024-03-08T07:17:40;23.85;;;11.25;;
35959;SDS011;22043;50.970;7.192;2024-03-08T07:20:06;22.42;;;10.88;;
35959;SDS011;22043;50.970;7.192;2024-03-08T07:22:36;25.95;;;11.70;;
35959;SDS011;22043;50.970;7.192;2024-03-08T07:25:04;21.75;;;10.27;;
35959;SDS011;22043;50.970;7.192;2024-03-08T07:27:44;22.85;;;10.30;;
35959;SDS011;22043;50.970;7.192;2024-03-08T07:30:11;22.77;;;11.25;;
35959;SDS011;22043;50.970;7.192;2024-03-08T07:32:36;22.05;;;10.90;;
35959;SDS011;22043;50.970;7.192;2024-03-08T07:35:03;22.25;;;11.13;;
35959;SDS011;22043;50.970;7.192;2024-03-08T07:37:30;23.35;;;11.75;;
35959;SDS011;22043;50.970;7.192;2024-03-08T07:39:56;22.70;;;10.98;;
35959;SDS011;22043;50.970;7.192;2024-03-08T07:42:23;26.35;;;10.88;;
35959;SDS011;22043;50.970;7.192;2024-03-08T07:44:48;21.77;;;10.43;;
35959;SDS011;22043;50.970;7.192;2024-03-08T07:47:15;23.30;;;10.88;;
35959;SDS011;22043;50.970;7.192;2024-03-08T07:49:42;25.83;;;12.32;;
35959;SDS011;22043;50.970;7.192;2024-03-08T07:52:08;23.70;;;10.73;;
35959;SDS011;22043;50.970;7.192;2024-03-08T07:54:34;19.95;;;10.32;;
35959;SDS011;22043;50.970;7.192;2024-03-08T07:57:02;24.27;;;10.65;;
35959;SDS011;22043;50.970;7.192;2024-03-08T07:59:28;24.60;;;11.43;;
35959;SDS011;22043;50.970;7.192;2024-03-08T08:01:54;23.25;;;10.18;;
35959;SDS011;22043;50.970;7.192;2024-03-08T08:04:20;22.00;;;10.50;;
35959;SDS011;22043;50.970;7.192;2024-03-08T08:06:49;23.17;;;11.02;;
35959;SDS011;22043;50.970;7.192;2024-03-08T08:09:16;23.55;;;10.55;;
35959;SDS011;22043;50.970;7.192;2024-03-08T08:11:47;24.05;;;11.35;;
35959;SDS011;22043;50.970;7.192;2024-03-08T08:14:12;24.52;;;11.00;;
35959;SDS011;22043;50.970;7.192;2024-03-08T08:16:38;21.05;;;10.70;;
35959;SDS011;22043;50.970;7.192;2024-03-08T08:19:07;22.17;;;10.82;;
35959;SDS011;22043;50.970;7.192;2024-03-08T08:21:34;20.33;;;9.90;;
35959;SDS011;22043;50.970;7.192;2024-03-08T08:24:02;21.17;;;10.68;;
35959;SDS011;22043;50.970;7.192;2024-03-08T08:26:28;23.17;;;10.77;;
35959;SDS011;22043;50.970;7.192;2024-03-08T08:28:54;21.30;;;10.50;;
35959;SDS011;22043;50.970;7.192;2024-03-08T08:31:19;20.80;;;10.05;;
35959;SDS011;22043;50.970;7.192;2024-03-08T08:33:45;21.30;;;10.82;;
35959;SDS011;22043;50.970;7.192;2024-03-08T08:36:13;21.70;;;10.15;;
35959;SDS011;22043;50.970;7.192;2024-03-08T08:42:32;26.35;;;10.95;;
35959;SDS011;22043;50.970;7.192;2024-03-08T08:45:12;21.58;;;11.02;;
35959;SDS011;22043;50.970;7.192;2024-03-08T08:48:34;22.50;;;9.55;;
35959;SDS011;22043;50.970;7.192;2024-03-08T08:51:29;22.45;;;10.20;;
35959;SDS011;22043;50.970;7.192;2024-03-08T08:54:48;22.42;;;9.68;;
35959;SDS011;22043;50.970;7.192;2024-03-08T08:57:17;22.48;;;9.95;;
35959;SDS011;22043;50.970;7.192;2024-03-08T09:00:03;23.33;;;10.27;;
35959;SDS011;22043;50.970;7.192;2024-03-08T09:05:50;20.08;;;10.18;;
35959;SDS011;22043;50.970;7.192;2024-03-08T09:08:18;19.85;;;9.25;;
35959;SDS011;22043;50.970;7.192;2024-03-08T09:10:47;20.20;;;10.32;;
35959;SDS011;22043;50.970;7.192;2024-03-08T09:13:14;19.02;;;9.25;;
35959;SDS011;22043;50.970;7.192;2024-03-08T09:15:39;17.02;;;8.70;;
35959;SDS011;22043;50.970;7.192;2024-03-08T09:18:12;19.55;;;9.20;;
35959;SDS011;22043;50.970;7.192;2024-03-08T09:20:40;18.90;;;9.43;;
35959;SDS011;22043;50.970;7.192;2024-03-08T09:23:11;16.80;;;8.90;;
35959;SDS011;22043;50.970;7.192;2024-03-08T09:25:51;18.20;;;8.35;;
35959;SDS011;22043;50.970;7.192;2024-03-08T09:28:31;22.85;;;9.57;;
35959;SDS011;22043;50.970;7.192;2024-03-08T09:30:57;19.52;;;9.60;;
35959;SDS011;22043;50.970;7.192;2024-03-08T09:33:23;18.17;;;9.00;;
35959;SDS011;22043;50.970;7.192;2024-03-08T09:35:49;18.95;;;8.40;;
35959;SDS011;22043;50.970;7.192;2024-03-08T09:38:16;16.77;;;8.43;;
35959;SDS011;22043;50.970;7.192;2024-03-08T09:40:42;17.50;;;8.32;;
35959;SDS011;22043;50.970;7.192;2024-03-08T09:43:08;18.38;;;8.13;;
35959;SDS011;22043;50.970;7.192;2024-03-08T09:45:37;17.75;;;8.90;;
35959;SDS011;22043;50.970;7.192;2024-03-08T09:48:08;19.27;;;9.15;;
35959;SDS011;22043;50.970;7.192;2024-03-08T09:50:42;18.52;;;8.30;;
35959;SDS011;22043;50.970;7.192;2024-03-08T09:53:29;18.50;;;8.55;;
35959;SDS011;22043;50.970;7.192;2024-03-08T09:56:02;19.92;;;9.00;;
35959;SDS011;22043;50.970;7.192;2024-03-08T09:58:29;15.77;;;8.20;;
35959;SDS011;22043;50.970;7.192;2024-03-08T10:01:03;19.38;;;9.15;;
35959;SDS011;22043;50.970;7.192;2024-03-08T10:03:32;17.88;;;8.38;;
35959;SDS011;22043;50.970;7.192;2024-03-08T10:06:02;15.48;;;7.70;;
35959;SDS011;22043;50.970;7.192;2024-03-08T10:08:45;17.73;;;7.60;;
35959;SDS011;22043;50.970;7.192;2024-03-08T10:11:22;15.60;;;8.25;;
35959;SDS011;22043;50.970;7.192;2024-03-08T10:14:02;17.17;;;8.57;;
35959;SDS011;22043;50.970;7.192;2024-03-08T10:16:33;14.98;;;7.97;;
35959;SDS011;22043;50.970;7.192;2024-03-08T10:19:00;14.48;;;7.57;;
35959;SDS011;22043;50.970;7.192;2024-03-08T10:21:25;16.77;;;6.93;;
35959;SDS011;22043;50.970;7.192;2024-03-08T10:23:55;17.02;;;7.43;;
35959;SDS011;22043;50.970;7.192;2024-03-08T10:26:21;15.27;;;7.75;;
35959;SDS011;22043;50.970;7.192;2024-03-08T10:28:47;14.43;;;7.43;;
35959;SDS011;22043;50.970;7.192;2024-03-08T10:31:14;17.58;;;7.68;;
35959;SDS011;22043;50.970;7.192;2024-03-08T10:33:43;16.15;;;7.20;;
35959;SDS011;22043;50.970;7.192;2024-03-08T10:36:09;14.10;;;6.80;;
35959;SDS011;22043;50.970;7.192;2024-03-08T10:38:36;12.70;;;6.20;;
35959;SDS011;22043;50.970;7.192;2024-03-08T10:41:03;14.38;;;6.95;;
35959;SDS011;22043;50.970;7.192;2024-03-08T10:43:31;17.60;;;6.57;;
35959;SDS011;22043;50.970;7.192;2024-03-08T10:48:48;14.18;;;6.65;;
35959;SDS011;22043;50.970;7.192;2024-03-08T10:51:15;14.63;;;7.22;;
35959;SDS011;22043;50.970;7.192;2024-03-08T10:53:40;12.48;;;6.22;;
35959;SDS011;22043;50.970;7.192;2024-03-08T10:56:07;14.90;;;7.05;;
35959;SDS011;22043;50.970;7.192;2024-03-08T10:58:34;13.27;;;7.22;;
35959;SDS011;22043;50.970;7.192;2024-03-08T11:01:01;15.32;;;7.20;;
35959;SDS011;22043;50.970;7.192;2024-03-08T11:06:05;13.35;;;6.70;;
35959;SDS011;22043;50.970;7.192;2024-03-08T11:08:33;14.30;;;6.43;;
35959;SDS011;22043;50.970;7.192;2024-03-08T11:10:59;12.40;;;6.68;;
35959;SDS011;22043;50.970;7.192;2024-03-08T11:16:09;15.57;;;6.18;;
35959;SDS011;22043;50.970;7.192;2024-03-08T11:18:35;13.32;;;6.93;;
35959;SDS011;22043;50.970;7.192;2024-03-08T11:21:08;13.33;;;6.13;;
35959;SDS011;22043;50.970;7.192;2024-03-08T11:23:37;15.50;;;7.15;;
35959;SDS011;22043;50.970;7.192;2024-03-08T11:26:21;13.13;;;6.53;;
35959;SDS011;22043;50.970;7.192;2024-03-08T11:28:49;14.05;;;6.43;;
35959;SDS011;22043;50.970;7.192;2024-03-08T11:31:22;13.13;;;5.80;;
35959;SDS011;22043;50.970;7.192;2024-03-08T11:33:48;14.32;;;6.88;;
35959;SDS011;22043;50.970;7.192;2024-03-08T11:38:47;13.75;;;6.38;;
35959;SDS011;22043;50.970;7.192;2024-03-08T11:41:17;15.10;;;6.38;;
35959;SDS011;22043;50.970;7.192;2024-03-08T11:43:49;14.70;;;5.70;;
35959;SDS011;22043;50.970;7.192;2024-03-08T11:46:34;14.38;;;6.75;;
35959;SDS011;22043;50.970;7.192;2024-03-08T11:49:00;12.48;;;5.45;;
35959;SDS011;22043;50.970;7.192;2024-03-08T11:51:26;11.25;;;5.63;;
35959;SDS011;22043;50.970;7.192;2024-03-08T11:53:52;11.02;;;5.90;;
35959;SDS011;22043;50.970;7.192;2024-03-08T11:56:18;11.00;;;5.55;;
35959;SDS011;22043;50.970;7.192;2024-03-08T11:58:55;10.52;;;4.35;;
35959;SDS011;22043;50.970;7.192;2024-03-08T12:01:22;11.90;;;5.47;;
35959;SDS011;22043;50.970;7.192;2024-03-08T12:03:55;11.93;;;5.40;;
35959;SDS011;22043;50.970;7.192;2024-03-08T12:06:24;10.20;;;5.22;;
35959;SDS011;22043;50.970;7.192;2024-03-08T12:09:11;11.13;;;5.18;;
35959;SDS011;22043;50.970;7.192;2024-03-08T12:11:42;11.43;;;5.25;;
35959;SDS011;22043;50.970;7.192;2024-03-08T12:14:09;10.50;;;5.47;;
35959;SDS011;22043;50.970;7.192;2024-03-08T12:16:36;12.70;;;5.25;;
35959;SDS011;22043;50.970;7.192;2024-03-08T12:19:02;9.73;;;4.65;;
35959;SDS011;22043;50.970;7.192;2024-03-08T12:21:30;11.25;;;5.45;;
35959;SDS011;22043;50.970;7.192;2024-03-08T12:24:04;8.13;;;4.55;;
35959;SDS011;22043;50.970;7.192;2024-03-08T12:26:37;8.68;;;4.30;;
35959;SDS011;22043;50.970;7.192;2024-03-08T12:32:01;10.10;;;5.53;;
35959;SDS011;22043;50.970;7.192;2024-03-08T12:34:27;9.63;;;4.35;;
35959;SDS011;22043;50.970;7.192;2024-03-08T12:36:53;12.43;;;5.18;;
35959;SDS011;22043;50.970;7.192;2024-03-08T12:39:22;10.32;;;5.97;;
35959;SDS011;22043;50.970;7.192;2024-03-08T12:41:52;11.20;;;4.50;;
35959;SDS011;22043;50.970;7.192;2024-03-08T12:46:47;11.27;;;5.28;;
35959;SDS011;22043;50.970;7.192;2024-03-08T12:49:13;10.55;;;4.85;;
35959;SDS011;22043;50.970;7.192;2024-03-08T12:51:42;10.70;;;4.95;;
35959;SDS011;22043;50.970;7.192;2024-03-08T12:54:09;12.13;;;5.55;;
35959;SDS011;22043;50.970;7.192;2024-03-08T12:56:35;11.40;;;5.40;;
35959;SDS011;22043;50.970;7.192;2024-03-08T12:59:02;10.95;;;5.38;;
35959;SDS011;22043;50.970;7.192;2024-03-08T13:01:28;11.73;;;5.13;;
35959;SDS011;22043;50.970;7.192;2024-03-08T13:03:55;13.35;;;5.30;;
35959;SDS011;22043;50.970;7.192;2024-03-08T13:06:20;10.60;;;5.32;;
35959;SDS011;22043;50.970;7.192;2024-03-08T13:08:52;12.20;;;5.72;;
35959;SDS011;22043;50.970;7.192;2024-03-08T13:11:18;10.77;;;5.40;;
35959;SDS011;22043;50.970;7.192;2024-03-08T13:13:45;12.35;;;6.65;;
35959;SDS011;22043;50.970;7.192;2024-03-08T13:16:10;11.93;;;5.80;;
35959;SDS011;22043;50.970;7.192;2024-03-08T13:18:39;12.93;;;5.82;;
35959;SDS011;22043;50.970;7.192;2024-03-08T13:21:07;15.03;;;5.77;;
35959;SDS011;22043;50.970;7.192;2024-03-08T13:23:34;12.52;;;6.47;;
35959;SDS011;22043;50.970;7.192;2024-03-08T13:26:08;12.80;;;6.07;;
35959;SDS011;22043;50.970;7.192;2024-03-08T13:28:37;11.70;;;5.88;;
35959;SDS011;22043;50.970;7.192;2024-03-08T13:31:03;24.65;;;6.95;;
35959;SDS011;22043;50.970;7.192;2024-03-08T13:33:35;12.20;;;6.22;;
35959;SDS011;22043;50.970;7.192;2024-03-08T13:36:10;14.63;;;5.97;;
35959;SDS011;22043;50.970;7.192;2024-03-08T13:38:46;14.40;;;6.78;;
35959;SDS011;22043;50.970;7.192;2024-03-08T13:41:12;14.00;;;6.78;;
35959;SDS011;22043;50.970;7.192;2024-03-08T13:43:46;13.00;;;6.27;;
35959;SDS011;22043;50.970;7.192;2024-03-08T13:46:15;14.73;;;6.90;;
35959;SDS011;22043;50.970;7.192;2024-03-08T13:48:41;13.40;;;6.03;;
35959;SDS011;22043;50.970;7.192;2024-03-08T13:51:08;13.27;;;6.38;;
35959;SDS011;22043;50.970;7.192;2024-03-08T13:56:02;15.88;;;7.00;;
35959;SDS011;22043;50.970;7.192;2024-03-08T13:58:28;14.60;;;6.90;;
35959;SDS011;22043;50.970;7.192;2024-03-08T14:00:53;14.00;;;5.85;;
35959;SDS011;22043;50.970;7.192;2024-03-08T14:03:20;14.80;;;7.22;;
35959;SDS011;22043;50.970;7.192;2024-03-08T14:05:46;15.90;;;7.20;;
35959;SDS011;22043;50.970;7.192;2024-03-08T14:08:12;13.05;;;7.38;;
35959;SDS011;22043;50.970;7.192;2024-03-08T14:10:37;16.00;;;6.65;;
35959;SDS011;22043;50.970;7.192;2024-03-08T14:13:03;12.60;;;6.45;;
35959;SDS011;22043;50.970;7.192;2024-03-08T14:15:33;16.15;;;6.68;;
35959;SDS011;22043;50.970;7.192;2024-03-08T14:18:03;15.02;;;7.53;;
35959;SDS011;22043;50.970;7.192;2024-03-08T14:20:31;14.77;;;7.00;;
35959;SDS011;22043;50.970;7.192;2024-03-08T14:22:57;14.40;;;6.85;;
35959;SDS011;22043;50.970;7.192;2024-03-08T14:25:23;15.23;;;7.88;;
35959;SDS011;22043;50.970;7.192;2024-03-08T14:27:52;14.88;;;7.07;;
35959;SDS011;22043;50.970;7.192;2024-03-08T14:30:19;12.68;;;6.75;;
35959;SDS011;22043;50.970;7.192;2024-03-08T14:32:58;14.07;;;6.47;;
35959;SDS011;22043;50.970;7.192;2024-03-08T14:35:25;14.55;;;6.85;;
35959;SDS011;22043;50.970;7.192;2024-03-08T14:37:51;12.52;;;6.53;;
35959;SDS011;22043;50.970;7.192;2024-03-08T14:40:17;13.32;;;6.30;;
35959;SDS011;22043;50.970;7.192;2024-03-08T14:42:48;11.95;;;6.93;;
35959;SDS011;22043;50.970;7.192;2024-03-08T14:45:15;13.80;;;6.30;;
35959;SDS011;22043;50.970;7.192;2024-03-08T14:47:41;16.15;;;7.53;;
35959;SDS011;22043;50.970;7.192;2024-03-08T14:50:07;13.23;;;6.45;;
35959;SDS011;22043;50.970;7.192;2024-03-08T14:52:37;14.02;;;6.53;;
35959;SDS011;22043;50.970;7.192;2024-03-08T14:55:05;15.38;;;6.47;;
35959;SDS011;22043;50.970;7.192;2024-03-08T14:57:31;12.48;;;6.57;;